sensor_id;sensor_type;location;lat;lon;timestamp;pressure;altitude;pressure_sealevel;temperature;humidity
14295;BME280;7231;59.370;18.016;2023-04-01T00:01:23;100624.25;;;-3.74;68.50
14295;BME280;7231;59.370;18.016;2023-04-01T00:03:51;100657.78;;;-3.61;68.69
14295;BME280;7231;59.370;18.016;2023-04-01T00:06:20;100653.94;;;-3.66;68.55
14295;BME280;7231;59.370;18.016;2023-04-01T00:08:49;100653.06;;;-3.66;69.27
14295;BME280;7231;59.370;18.016;2023-04-01T00:11:17;100654.59;;;-3.68;68.98
14295;BME280;7231;59.370;18.016;2023-04-01T00:13:47;100670.63;;;-3.71;69.12
14295;BME280;7231;59.370;18.016;2023-04-01T00:16:16;100658.59;;;-3.72;69.57
14295;BME280;7231;59.370;18.016;2023-04-01T00:18:51;100662.94;;;-3.71;69.43
14295;BME280;7231;59.370;18.016;2023-04-01T00:21:20;100662.16;;;-3.70;69.24
14295;BME280;7231;59.370;18.016;2023-04-01T00:23:48;100670.88;;;-3.68;69.64
14295;BME280;7231;59.370;18.016;2023-04-01T00:26:20;100650.53;;;-3.86;69.79
14295;BME280;7231;59.370;18.016;2023-04-01T00:28:50;100514.38;;;-4.65;69.76
14295;BME280;7231;59.370;18.016;2023-04-01T00:31:19;100592.34;;;-4.19;70.18
14295;BME280;7231;59.370;18.016;2023-04-01T00:33:49;100679.47;;;-3.77;70.46
14295;BME280;7231;59.370;18.016;2023-04-01T00:36:21;100635.09;;;-4.08;70.18
14295;BME280;7231;59.370;18.016;2023-04-01T00:38:50;100676.41;;;-3.83;69.99
14295;BME280;7231;59.370;18.016;2023-04-01T00:41:19;100677.06;;;-3.86;70.29
14295;BME280;7231;59.370;18.016;2023-04-01T00:43:50;100681.91;;;-3.89;70.61
14295;BME280;7231;59.370;18.016;2023-04-01T00:46:21;100625.25;;;-4.24;70.82
14295;BME280;7231;59.370;18.016;2023-04-01T00:48:52;100690.13;;;-3.93;71.02
14295;BME280;7231;59.370;18.016;2023-04-01T00:51:25;100681.53;;;-3.94;70.97
14295;BME280;7231;59.370;18.016;2023-04-01T00:53:59;100681.66;;;-3.92;71.42
14295;BME280;7231;59.370;18.016;2023-04-01T00:56:33;100677.31;;;-3.93;71.51
14295;BME280;7231;59.370;18.016;2023-04-01T00:59:04;100680.53;;;-3.96;71.66
14295;BME280;7231;59.370;18.016;2023-04-01T01:01:35;100597.63;;;-4.48;71.40
14295;BME280;7231;59.370;18.016;2023-04-01T01:04:05;100682.72;;;-4.00;71.34
14295;BME280;7231;59.370;18.016;2023-04-01T01:06:41;100682.31;;;-4.05;72.01
14295;BME280;7231;59.370;18.016;2023-04-01T01:09:38;100659.03;;;-4.18;72.20
14295;BME280;7231;59.370;18.016;2023-04-01T01:12:13;100688.22;;;-4.06;71.88
14295;BME280;7231;59.370;18.016;2023-04-01T01:14:51;100501.47;;;-5.17;72.10
14295;BME280;7231;59.370;18.016;2023-04-01T01:17:32;100692.31;;;-4.08;72.00
14295;BME280;7231;59.370;18.016;2023-04-01T01:23:28;100661.84;;;-4.25;72.22
14295;BME280;7231;59.370;18.016;2023-04-01T01:26:16;100685.16;;;-4.12;72.50
14295;BME280;7231;59.370;18.016;2023-04-01T01:28:58;100687.84;;;-4.10;72.38
14295;BME280;7231;59.370;18.016;2023-04-01T01:31:36;100682.84;;;-4.09;72.23
14295;BME280;7231;59.370;18.016;2023-04-01T01:34:13;100657.63;;;-4.25;72.58
14295;BME280;7231;59.370;18.016;2023-04-01T01:36:45;100606.47;;;-4.55;72.45
14295;BME280;7231;59.370;18.016;2023-04-01T01:39:17;100695.00;;;-4.06;72.56
14295;BME280;7231;59.370;18.016;2023-04-01T01:41:48;100690.66;;;-4.07;72.91
14295;BME280;7231;59.370;18.016;2023-04-01T01:44:18;100688.84;;;-4.08;72.82
14295;BME280;7231;59.370;18.016;2023-04-01T01:46:51;100695.53;;;-4.10;73.07
14295;BME280;7231;59.370;18.016;2023-04-01T01:49:20;100693.84;;;-4.10;73.32
14295;BME280;7231;59.370;18.016;2023-04-01T01:51:50;100700.00;;;-4.08;73.14
14295;BME280;7231;59.370;18.016;2023-04-01T01:54:21;100697.44;;;-4.08;73.25
14295;BME280;7231;59.370;18.016;2023-04-01T01:56:53;100690.53;;;-4.09;73.94
14295;BME280;7231;59.370;18.016;2023-04-01T01:59:24;100699.22;;;-4.07;73.61
14295;BME280;7231;59.370;18.016;2023-04-01T02:01:55;100689.75;;;-4.08;73.92
14295;BME280;7231;59.370;18.016;2023-04-01T02:04:29;100693.22;;;-4.07;73.89
14295;BME280;7231;59.370;18.016;2023-04-01T02:07:02;100634.09;;;-4.51;74.02
14295;BME280;7231;59.370;18.016;2023-04-01T02:09:33;100706.13;;;-4.06;74.30
14295;BME280;7231;59.370;18.016;2023-04-01T02:12:05;100711.13;;;-4.07;74.09
14295;BME280;7231;59.370;18.016;2023-04-01T02:14:38;100714.34;;;-4.10;74.59
14295;BME280;7231;59.370;18.016;2023-04-01T02:17:12;100661.47;;;-4.40;74.38
14295;BME280;7231;59.370;18.016;2023-04-01T02:19:47;100714.22;;;-4.11;74.44
14295;BME280;7231;59.370;18.016;2023-04-01T02:22:20;100714.06;;;-4.13;74.44
14295;BME280;7231;59.370;18.016;2023-04-01T02:24:52;100714.06;;;-4.13;74.70
14295;BME280;7231;59.370;18.016;2023-04-01T02:27:23;100712.28;;;-4.14;74.40
14295;BME280;7231;59.370;18.016;2023-04-01T02:29:54;100685.53;;;-4.28;75.05
14295;BME280;7231;59.370;18.016;2023-04-01T02:32:25;100708.06;;;-4.13;74.71
14295;BME280;7231;59.370;18.016;2023-04-01T02:34:57;100713.81;;;-4.16;74.58
14295;BME280;7231;59.370;18.016;2023-04-01T02:37:31;100706.66;;;-4.20;75.22
14295;BME280;7231;59.370;18.016;2023-04-01T02:40:02;100708.97;;;-4.23;75.26
14295;BME280;7231;59.370;18.016;2023-04-01T02:42:32;100699.34;;;-4.26;75.11
14295;BME280;7231;59.370;18.016;2023-04-01T02:45:00;100246.88;;;-6.90;75.33
14295;BME280;7231;59.370;18.016;2023-04-01T02:47:29;100702.44;;;-4.30;75.62
14295;BME280;7231;59.370;18.016;2023-04-01T02:49:57;100706.53;;;-4.32;75.90
14295;BME280;7231;59.370;18.016;2023-04-01T02:52:25;100702.16;;;-4.33;75.58
14295;BME280;7231;59.370;18.016;2023-04-01T02:54:57;100710.50;;;-4.35;76.18
14295;BME280;7231;59.370;18.016;2023-04-01T02:57:28;100685.25;;;-4.51;76.17
14295;BME280;7231;59.370;18.016;2023-04-01T02:59:57;100696.78;;;-4.46;76.08
14295;BME280;7231;59.370;18.016;2023-04-01T03:02:27;100710.09;;;-4.40;76.12
14295;BME280;7231;59.370;18.016;2023-04-01T03:04:55;100712.66;;;-4.40;76.71
14295;BME280;7231;59.370;18.016;2023-04-01T03:07:24;100688.97;;;-4.58;76.35
14295;BME280;7231;59.370;18.016;2023-04-01T03:09:55;100725.19;;;-4.43;77.01
14295;BME280;7231;59.370;18.016;2023-04-01T03:12:25;100728.50;;;-4.44;76.59
14295;BME280;7231;59.370;18.016;2023-04-01T03:14:54;100719.94;;;-4.44;76.80
14295;BME280;7231;59.370;18.016;2023-04-01T03:17:36;100723.41;;;-4.44;77.09
14295;BME280;7231;59.370;18.016;2023-04-01T03:20:05;100726.84;;;-4.43;77.01
14295;BME280;7231;59.370;18.016;2023-04-01T03:22:36;100673.06;;;-4.74;77.41
14295;BME280;7231;59.370;18.016;2023-04-01T03:25:14;100715.19;;;-4.60;77.25
14295;BME280;7231;59.370;18.016;2023-04-01T03:27:43;100743.38;;;-4.40;77.42
14295;BME280;7231;59.370;18.016;2023-04-01T03:30:11;100571.88;;;-5.31;77.53
14295;BME280;7231;59.370;18.016;2023-04-01T03:32:39;100743.09;;;-4.43;77.50
14295;BME280;7231;59.370;18.016;2023-04-01T03:35:08;100704.69;;;-4.63;77.57
14295;BME280;7231;59.370;18.016;2023-04-01T03:37:38;100712.63;;;-4.60;77.75
14295;BME280;7231;59.370;18.016;2023-04-01T03:40:06;100671.78;;;-4.89;77.78
14295;BME280;7231;59.370;18.016;2023-04-01T03:42:36;100747.69;;;-4.49;77.97
14295;BME280;7231;59.370;18.016;2023-04-01T03:45:06;100715.44;;;-4.67;78.06
14295;BME280;7231;59.370;18.016;2023-04-01T03:47:37;100751.03;;;-4.50;78.32
14295;BME280;7231;59.370;18.016;2023-04-01T03:50:07;100636.28;;;-5.15;78.08
14295;BME280;7231;59.370;18.016;2023-04-01T03:52:35;100754.22;;;-4.52;78.38
14295;BME280;7231;59.370;18.016;2023-04-01T03:55:04;100761.00;;;-4.53;78.41
14295;BME280;7231;59.370;18.016;2023-04-01T03:57:37;100739.84;;;-4.71;78.39
14295;BME280;7231;59.370;18.016;2023-04-01T04:00:06;100757.00;;;-4.60;78.57
14295;BME280;7231;59.370;18.016;2023-04-01T04:02:35;100763.78;;;-4.60;78.37
14295;BME280;7231;59.370;18.016;2023-04-01T04:05:05;100740.34;;;-4.75;78.33
14295;BME280;7231;59.370;18.016;2023-04-01T04:07:34;100610.78;;;-5.54;78.37
14295;BME280;7231;59.370;18.016;2023-04-01T04:10:03;100747.13;;;-4.75;78.65
14295;BME280;7231;59.370;18.016;2023-04-01T04:12:32;100706.91;;;-4.97;78.99
14295;BME280;7231;59.370;18.016;2023-04-01T04:15:02;100714.84;;;-4.94;78.67
14295;BME280;7231;59.370;18.016;2023-04-01T04:17:32;100775.69;;;-4.61;79.18
14295;BME280;7231;59.370;18.016;2023-04-01T04:20:00;100766.84;;;-4.64;78.89
14295;BME280;7231;59.370;18.016;2023-04-01T04:22:28;100752.22;;;-4.75;79.14
14295;BME280;7231;59.370;18.016;2023-04-01T04:24:56;100751.44;;;-4.84;79.47
14295;BME280;7231;59.370;18.016;2023-04-01T04:27:24;100784.75;;;-4.64;79.44
14295;BME280;7231;59.370;18.016;2023-04-01T04:29:52;100786.28;;;-4.66;79.72
14295;BME280;7231;59.370;18.016;2023-04-01T04:32:24;100787.19;;;-4.66;79.64
14295;BME280;7231;59.370;18.016;2023-04-01T04:34:53;100686.66;;;-5.24;79.86
14295;BME280;7231;59.370;18.016;2023-04-01T04:37:21;100677.69;;;-5.29;79.79
14295;BME280;7231;59.370;18.016;2023-04-01T04:39:51;100791.81;;;-4.62;79.87
14295;BME280;7231;59.370;18.016;2023-04-01T04:42:19;100792.06;;;-4.59;80.07
14295;BME280;7231;59.370;18.016;2023-04-01T04:44:47;100683.59;;;-5.20;80.00
14295;BME280;7231;59.370;18.016;2023-04-01T04:47:15;100811.41;;;-4.52;80.36
14295;BME280;7231;59.370;18.016;2023-04-01T04:49:47;100778.09;;;-4.62;80.30
14295;BME280;7231;59.370;18.016;2023-04-01T04:52:18;100756.09;;;-4.70;80.43
14295;BME280;7231;59.370;18.016;2023-04-01T04:54:47;100612.44;;;-5.54;80.33
14295;BME280;7231;59.370;18.016;2023-04-01T04:57:15;100805.81;;;-4.38;80.33
14295;BME280;7231;59.370;18.016;2023-04-01T04:59:46;100805.69;;;-4.39;80.73
14295;BME280;7231;59.370;18.016;2023-04-01T05:02:14;100819.53;;;-4.27;80.53
14295;BME280;7231;59.370;18.016;2023-04-01T05:04:43;100824.16;;;-4.23;80.56
14295;BME280;7231;59.370;18.016;2023-04-01T05:07:13;100819.41;;;-4.18;80.95
14295;BME280;7231;59.370;18.016;2023-04-01T05:09:43;100821.59;;;-4.13;81.46
14295;BME280;7231;59.370;18.016;2023-04-01T05:12:13;100826.34;;;-4.07;81.55
14295;BME280;7231;59.370;18.016;2023-04-01T05:14:41;100714.53;;;-4.68;81.17
14295;BME280;7231;59.370;18.016;2023-04-01T05:17:09;100828.28;;;-3.95;81.80
14295;BME280;7231;59.370;18.016;2023-04-01T05:19:38;100833.94;;;-3.88;81.78
14295;BME280;7231;59.370;18.016;2023-04-01T05:22:06;100841.09;;;-3.84;81.68
14295;BME280;7231;59.370;18.016;2023-04-01T05:24:35;100770.78;;;-4.18;81.80
14295;BME280;7231;59.370;18.016;2023-04-01T05:27:03;100853.16;;;-3.73;82.05
14295;BME280;7231;59.370;18.016;2023-04-01T05:29:32;100744.66;;;-4.25;81.66
14295;BME280;7231;59.370;18.016;2023-04-01T05:32:01;100808.44;;;-3.87;81.96
14295;BME280;7231;59.370;18.016;2023-04-01T05:34:29;100769.13;;;-4.08;82.11
14295;BME280;7231;59.370;18.016;2023-04-01T05:36:57;100862.66;;;-3.52;81.95
14295;BME280;7231;59.370;18.016;2023-04-01T05:39:25;100855.34;;;-3.47;82.22
14295;BME280;7231;59.370;18.016;2023-04-01T05:41:56;100790.00;;;-3.83;82.60
14295;BME280;7231;59.370;18.016;2023-04-01T05:44:24;100862.25;;;-3.36;82.24
14295;BME280;7231;59.370;18.016;2023-04-01T05:46:55;100868.66;;;-3.31;82.44
14295;BME280;7231;59.370;18.016;2023-04-01T05:49:23;100870.97;;;-3.24;82.77
14295;BME280;7231;59.370;18.016;2023-04-01T05:51:54;100850.59;;;-3.33;82.83
14295;BME280;7231;59.370;18.016;2023-04-01T05:54:22;100882.22;;;-3.12;82.87
14295;BME280;7231;59.370;18.016;2023-04-01T05:56:52;100879.28;;;-3.06;83.04
14295;BME280;7231;59.370;18.016;2023-04-01T05:59:22;100875.56;;;-3.00;83.12
14295;BME280;7231;59.370;18.016;2023-04-01T06:01:50;100876.94;;;-2.93;82.87
14295;BME280;7231;59.370;18.016;2023-04-01T06:04:19;100877.56;;;-2.85;83.31
14295;BME280;7231;59.370;18.016;2023-04-01T06:06:51;100819.03;;;-3.11;83.00
14295;BME280;7231;59.370;18.016;2023-04-01T06:09:24;100875.47;;;-2.69;83.48
14295;BME280;7231;59.370;18.016;2023-04-01T06:12:12;100871.72;;;-2.63;83.96
14295;BME280;7231;59.370;18.016;2023-04-01T06:14:52;100750.59;;;-3.22;83.50
14295;BME280;7231;59.370;18.016;2023-04-01T06:17:29;100865.34;;;-2.46;83.60
14295;BME280;7231;59.370;18.016;2023-04-01T06:20:06;100863.63;;;-2.35;83.66
14295;BME280;7231;59.370;18.016;2023-04-01T06:22:51;100845.16;;;-2.41;83.65
14295;BME280;7231;59.370;18.016;2023-04-01T06:25:51;100875.34;;;-2.17;83.76
14295;BME280;7231;59.370;18.016;2023-04-01T06:31:41;100835.69;;;-2.20;83.61
14295;BME280;7231;59.370;18.016;2023-04-01T06:34:24;100879.28;;;-1.88;83.45
14295;BME280;7231;59.370;18.016;2023-04-01T06:37:07;100824.56;;;-2.09;83.63
14295;BME280;7231;59.370;18.016;2023-04-01T06:40:00;100881.41;;;-1.61;83.46
14295;BME280;7231;59.370;18.016;2023-04-01T06:42:51;100888.41;;;-1.48;83.42
14295;BME280;7231;59.370;18.016;2023-04-01T06:45:31;100839.28;;;-1.63;83.01
14295;BME280;7231;59.370;18.016;2023-04-01T06:48:13;100784.56;;;-1.84;82.97
14295;BME280;7231;59.370;18.016;2023-04-01T06:50:52;100899.25;;;-0.95;83.31
14295;BME280;7231;59.370;18.016;2023-04-01T06:53:29;100826.28;;;-1.08;84.53
14295;BME280;7231;59.370;18.016;2023-04-01T06:56:04;100903.25;;;-0.06;85.17
14295;BME280;7231;59.370;18.016;2023-04-01T06:58:37;100895.81;;;0.60;83.74
14295;BME280;7231;59.370;18.016;2023-04-01T07:01:10;100908.28;;;1.30;83.46
14295;BME280;7231;59.370;18.016;2023-04-01T07:03:44;100866.00;;;1.83;84.05
14295;BME280;7231;59.370;18.016;2023-04-01T07:06:23;100894.34;;;2.50;84.52
14295;BME280;7231;59.370;18.016;2023-04-01T07:08:55;100884.03;;;2.94;85.49
14295;BME280;7231;59.370;18.016;2023-04-01T07:11:32;100916.34;;;3.60;85.29
14295;BME280;7231;59.370;18.016;2023-04-01T07:14:04;100820.00;;;3.52;83.86
14295;BME280;7231;59.370;18.016;2023-04-01T07:16:39;100912.97;;;4.55;82.52
14295;BME280;7231;59.370;18.016;2023-04-01T07:19:17;100913.00;;;5.06;79.70
14295;BME280;7231;59.370;18.016;2023-04-01T07:21:49;100769.34;;;4.56;78.82
14295;BME280;7231;59.370;18.016;2023-04-01T07:24:22;100919.97;;;5.76;76.96
14295;BME280;7231;59.370;18.016;2023-04-01T07:26:54;100920.50;;;6.05;75.73
14295;BME280;7231;59.370;18.016;2023-04-01T07:29:25;100902.13;;;6.19;73.46
14295;BME280;7231;59.370;18.016;2023-04-01T07:32:08;100798.44;;;5.92;70.63
14295;BME280;7231;59.370;18.016;2023-04-01T07:34:48;100925.38;;;6.92;69.86
14295;BME280;7231;59.370;18.016;2023-04-01T07:37:24;100905.94;;;7.05;68.60
14295;BME280;7231;59.370;18.016;2023-04-01T07:40:02;100931.63;;;7.36;67.39
14295;BME280;7231;59.370;18.016;2023-04-01T07:42:46;100910.38;;;7.47;65.71
14295;BME280;7231;59.370;18.016;2023-04-01T07:45:24;100923.72;;;7.76;65.18
14295;BME280;7231;59.370;18.016;2023-04-01T07:48:08;100934.38;;;7.82;63.11
14295;BME280;7231;59.370;18.016;2023-04-01T07:50:41;100948.00;;;7.96;63.07
14295;BME280;7231;59.370;18.016;2023-04-01T07:53:24;100937.03;;;8.04;62.07
14295;BME280;7231;59.370;18.016;2023-04-01T07:56:00;100938.28;;;8.14;61.59
14295;BME280;7231;59.370;18.016;2023-04-01T07:58:39;100938.03;;;8.08;60.45
14295;BME280;7231;59.370;18.016;2023-04-01T08:01:19;100942.59;;;8.13;59.56
14295;BME280;7231;59.370;18.016;2023-04-01T08:04:04;100943.03;;;8.24;59.12
14295;BME280;7231;59.370;18.016;2023-04-01T08:06:42;100908.06;;;8.21;59.33
14295;BME280;7231;59.370;18.016;2023-04-01T08:09:22;100947.13;;;8.62;58.47
14295;BME280;7231;59.370;18.016;2023-04-01T08:12:02;100956.31;;;8.75;58.12
14295;BME280;7231;59.370;18.016;2023-04-01T08:14:39;100942.81;;;8.87;57.61
14295;BME280;7231;59.370;18.016;2023-04-01T08:17:16;100938.59;;;8.90;57.33
14295;BME280;7231;59.370;18.016;2023-04-01T08:19:59;100913.00;;;8.82;56.18
14295;BME280;7231;59.370;18.016;2023-04-01T08:22:39;100943.75;;;9.13;56.35
14295;BME280;7231;59.370;18.016;2023-04-01T08:25:16;100947.69;;;9.25;55.93
14295;BME280;7231;59.370;18.016;2023-04-01T08:27:48;100947.78;;;9.28;55.96
14295;BME280;7231;59.370;18.016;2023-04-01T08:30:20;100951.09;;;9.48;55.71
14295;BME280;7231;59.370;18.016;2023-04-01T08:32:51;100948.41;;;9.72;54.96
14295;BME280;7231;59.370;18.016;2023-04-01T08:35:27;100895.31;;;9.76;54.38
14295;BME280;7231;59.370;18.016;2023-04-01T08:38:05;100958.03;;;10.25;52.36
14295;BME280;7231;59.370;18.016;2023-04-01T08:40:56;100909.13;;;9.99;51.17
14295;BME280;7231;59.370;18.016;2023-04-01T08:43:50;100952.38;;;10.40;51.46
14295;BME280;7231;59.370;18.016;2023-04-01T08:49:46;100955.22;;;11.09;50.34
14295;BME280;7231;59.370;18.016;2023-04-01T08:52:29;100957.59;;;11.00;49.50
14295;BME280;7231;59.370;18.016;2023-04-01T08:55:32;100937.88;;;10.83;49.02
14295;BME280;7231;59.370;18.016;2023-04-01T08:58:32;100957.53;;;10.98;48.90
14295;BME280;7231;59.370;18.016;2023-04-01T09:01:17;100964.63;;;11.01;49.67
14295;BME280;7231;59.370;18.016;2023-04-01T09:04:11;100922.34;;;10.90;48.01
14295;BME280;7231;59.370;18.016;2023-04-01T09:06:51;100927.88;;;11.01;47.90
14295;BME280;7231;59.370;18.016;2023-04-01T09:09:37;100963.56;;;11.26;47.60
14295;BME280;7231;59.370;18.016;2023-04-01T09:18:13;100977.69;;;11.64;46.40
14295;BME280;7231;59.370;18.016;2023-04-01T09:20:48;100980.59;;;11.75;47.07
14295;BME280;7231;59.370;18.016;2023-04-01T09:32:55;100993.03;;;11.80;45.57
14295;BME280;7231;59.370;18.016;2023-04-01T09:35:38;100992.25;;;11.84;45.45
14295;BME280;7231;59.370;18.016;2023-04-01T09:38:22;100985.34;;;11.88;44.81
14295;BME280;7231;59.370;18.016;2023-04-01T09:40:55;100949.66;;;11.63;45.11
14295;BME280;7231;59.370;18.016;2023-04-01T09:43:29;100970.13;;;11.76;44.36
14295;BME280;7231;59.370;18.016;2023-04-01T09:46:15;100993.88;;;12.14;44.28
14295;BME280;7231;59.370;18.016;2023-04-01T09:49:08;100987.88;;;12.19;43.71
14295;BME280;7231;59.370;18.016;2023-04-01T09:51:52;100993.88;;;12.14;44.03
14295;BME280;7231;59.370;18.016;2023-04-01T09:54:34;100989.94;;;12.32;44.15
14295;BME280;7231;59.370;18.016;2023-04-01T09:57:25;100937.06;;;12.20;43.29
14295;BME280;7231;59.370;18.016;2023-04-01T10:00:15;100928.88;;;12.46;42.43
14295;BME280;7231;59.370;18.016;2023-04-01T10:03:05;100993.91;;;12.93;42.31
14295;BME280;7231;59.370;18.016;2023-04-01T10:09:18;101000.00;;;12.91;42.14
14295;BME280;7231;59.370;18.016;2023-04-01T10:12:22;100995.00;;;12.62;41.72
14295;BME280;7231;59.370;18.016;2023-04-01T10:18:17;100991.59;;;12.66;41.19
14295;BME280;7231;59.370;18.016;2023-04-01T10:21:10;100954.41;;;12.12;41.34
14295;BME280;7231;59.370;18.016;2023-04-01T10:27:00;100918.75;;;12.23;41.39
14295;BME280;7231;59.370;18.016;2023-04-01T10:29:59;101004.41;;;12.92;40.88
14295;BME280;7231;59.370;18.016;2023-04-01T10:39:02;101018.69;;;12.62;41.23
14295;BME280;7231;59.370;18.016;2023-04-01T10:41:52;100937.25;;;12.28;40.34
14295;BME280;7231;59.370;18.016;2023-04-01T10:44:43;100960.09;;;12.30;40.02
14295;BME280;7231;59.370;18.016;2023-04-01T10:50:47;100984.94;;;12.84;40.32
14295;BME280;7231;59.370;18.016;2023-04-01T10:53:35;101024.41;;;13.24;39.76
14295;BME280;7231;59.370;18.016;2023-04-01T10:59:48;101031.78;;;13.01;39.30
14295;BME280;7231;59.370;18.016;2023-04-01T11:05:49;101042.25;;;12.97;38.26
14295;BME280;7231;59.370;18.016;2023-04-01T11:12:07;101033.09;;;13.20;38.13
14295;BME280;7231;59.370;18.016;2023-04-01T11:15:18;101008.88;;;12.96;37.67
14295;BME280;7231;59.370;18.016;2023-04-01T11:21:41;101044.53;;;13.22;37.62
14295;BME280;7231;59.370;18.016;2023-04-01T11:27:24;101036.78;;;13.28;37.30
14295;BME280;7231;59.370;18.016;2023-04-01T11:32:54;101034.88;;;13.67;37.27
14295;BME280;7231;59.370;18.016;2023-04-01T11:35:39;101036.38;;;13.54;36.19
14295;BME280;7231;59.370;18.016;2023-04-01T11:38:22;100887.09;;;12.59;35.91
14295;BME280;7231;59.370;18.016;2023-04-01T11:40:59;101042.41;;;13.47;35.94
14295;BME280;7231;59.370;18.016;2023-04-01T11:43:38;101039.25;;;13.66;36.45
14295;BME280;7231;59.370;18.016;2023-04-01T11:46:19;101042.44;;;13.96;36.16
14295;BME280;7231;59.370;18.016;2023-04-01T11:48:57;100703.97;;;12.19;35.62
14295;BME280;7231;59.370;18.016;2023-04-01T11:52:05;101045.31;;;14.10;35.51
14295;BME280;7231;59.370;18.016;2023-04-01T11:54:53;101051.28;;;14.00;36.15
14295;BME280;7231;59.370;18.016;2023-04-01T11:57:53;101043.41;;;14.02;36.12
14295;BME280;7231;59.370;18.016;2023-04-01T12:00:40;101048.25;;;13.77;35.74
14295;BME280;7231;59.370;18.016;2023-04-01T12:03:39;100943.38;;;13.13;36.36
14295;BME280;7231;59.370;18.016;2023-04-01T12:06:16;101046.59;;;13.82;36.25
14295;BME280;7231;59.370;18.016;2023-04-01T12:08:52;100984.28;;;13.38;36.73
14295;BME280;7231;59.370;18.016;2023-04-01T12:11:29;101023.38;;;13.63;36.85
14295;BME280;7231;59.370;18.016;2023-04-01T12:14:08;100975.31;;;13.28;36.73
14295;BME280;7231;59.370;18.016;2023-04-01T12:17:01;100943.63;;;13.23;36.63
14295;BME280;7231;59.370;18.016;2023-04-01T12:19:40;100997.56;;;13.92;36.79
14295;BME280;7231;59.370;18.016;2023-04-01T12:22:45;101025.00;;;14.57;35.55
14295;BME280;7231;59.370;18.016;2023-04-01T12:25:26;101004.56;;;14.44;35.38
14295;BME280;7231;59.370;18.016;2023-04-01T12:28:06;100999.19;;;14.40;35.33
14295;BME280;7231;59.370;18.016;2023-04-01T12:30:55;101057.69;;;14.67;35.36
14295;BME280;7231;59.370;18.016;2023-04-01T12:33:40;101087.25;;;15.04;35.70
14295;BME280;7231;59.370;18.016;2023-04-01T12:36:18;101071.94;;;15.45;35.18
14295;BME280;7231;59.370;18.016;2023-04-01T12:39:00;100994.44;;;15.46;34.69
14295;BME280;7231;59.370;18.016;2023-04-01T12:41:41;101085.06;;;16.19;34.39
14295;BME280;7231;59.370;18.016;2023-04-01T12:44:33;101037.44;;;16.19;34.11
14295;BME280;7231;59.370;18.016;2023-04-01T12:47:26;101097.97;;;16.87;33.83
14295;BME280;7231;59.370;18.016;2023-04-01T12:50:21;101096.97;;;16.70;33.61
14295;BME280;7231;59.370;18.016;2023-04-01T12:53:06;101110.00;;;16.48;34.12
14295;BME280;7231;59.370;18.016;2023-04-01T12:55:41;101102.31;;;16.76;33.71
14295;BME280;7231;59.370;18.016;2023-04-01T13:01:49;101104.28;;;17.09;32.60
14295;BME280;7231;59.370;18.016;2023-04-01T13:10:38;101108.03;;;17.49;32.55
14295;BME280;7231;59.370;18.016;2023-04-01T13:13:45;101128.25;;;17.32;32.44
14295;BME280;7231;59.370;18.016;2023-04-01T13:16:18;101124.06;;;17.78;32.49
14295;BME280;7231;59.370;18.016;2023-04-01T13:18:56;101122.38;;;18.04;31.92
14295;BME280;7231;59.370;18.016;2023-04-01T13:21:34;101130.31;;;18.21;31.41
14295;BME280;7231;59.370;18.016;2023-04-01T13:24:22;101103.75;;;17.80;31.09
14295;BME280;7231;59.370;18.016;2023-04-01T13:26:59;101140.06;;;18.36;31.51
14295;BME280;7231;59.370;18.016;2023-04-01T13:29:33;101136.53;;;18.49;30.92
14295;BME280;7231;59.370;18.016;2023-04-01T13:32:16;101096.56;;;17.58;31.05
14295;BME280;7231;59.370;18.016;2023-04-01T13:35:00;101147.91;;;17.70;31.23
14295;BME280;7231;59.370;18.016;2023-04-01T13:37:49;101041.59;;;17.12;31.35
14295;BME280;7231;59.370;18.016;2023-04-01T13:40:27;101039.06;;;17.44;31.30
14295;BME280;7231;59.370;18.016;2023-04-01T13:43:02;101159.56;;;18.59;30.85
14295;BME280;7231;59.370;18.016;2023-04-01T13:45:41;101166.69;;;18.65;30.66
14295;BME280;7231;59.370;18.016;2023-04-01T13:48:26;101040.06;;;17.68;31.13
14295;BME280;7231;59.370;18.016;2023-04-01T13:51:15;101101.97;;;17.83;31.12
14295;BME280;7231;59.370;18.016;2023-04-01T13:57:00;101143.63;;;18.50;30.57
14295;BME280;7231;59.370;18.016;2023-04-01T13:59:56;101158.72;;;18.83;30.10
14295;BME280;7231;59.370;18.016;2023-04-01T14:02:51;101173.72;;;18.58;29.79
14295;BME280;7231;59.370;18.016;2023-04-01T14:05:53;101176.38;;;18.44;30.24
14295;BME280;7231;59.370;18.016;2023-04-01T14:08:33;101168.38;;;18.14;30.22
14295;BME280;7231;59.370;18.016;2023-04-01T14:11:13;101184.31;;;18.09;30.16
14295;BME280;7231;59.370;18.016;2023-04-01T14:13:47;101151.56;;;18.09;29.49
14295;BME280;7231;59.370;18.016;2023-04-01T14:16:48;101172.66;;;17.71;29.23
14295;BME280;7231;59.370;18.016;2023-04-01T14:19:33;101200.09;;;17.77;29.47
14295;BME280;7231;59.370;18.016;2023-04-01T14:22:13;101198.47;;;18.17;28.78
14295;BME280;7231;59.370;18.016;2023-04-01T14:25:17;101201.09;;;18.21;28.60
14295;BME280;7231;59.370;18.016;2023-04-01T14:27:55;101201.97;;;17.98;28.54
14295;BME280;7231;59.370;18.016;2023-04-01T14:30:35;101201.06;;;17.93;28.59
14295;BME280;7231;59.370;18.016;2023-04-01T14:33:17;101208.16;;;17.99;28.32
14295;BME280;7231;59.370;18.016;2023-04-01T14:35:59;101205.56;;;18.40;27.94
14295;BME280;7231;59.370;18.016;2023-04-01T14:38:46;101216.25;;;18.61;27.87
14295;BME280;7231;59.370;18.016;2023-04-01T14:41:21;101218.06;;;18.97;27.92
14295;BME280;7231;59.370;18.016;2023-04-01T14:44:18;101214.50;;;18.86;27.92
14295;BME280;7231;59.370;18.016;2023-04-01T14:47:11;101211.84;;;18.86;27.70
14295;BME280;7231;59.370;18.016;2023-04-01T14:49:49;101231.34;;;19.11;27.69
14295;BME280;7231;59.370;18.016;2023-04-01T14:52:24;101232.22;;;19.18;27.28
14295;BME280;7231;59.370;18.016;2023-04-01T14:54:59;101226.00;;;19.19;27.08
14295;BME280;7231;59.370;18.016;2023-04-01T14:57:29;101215.41;;;18.94;26.95
14295;BME280;7231;59.370;18.016;2023-04-01T15:00:13;101239.31;;;19.05;26.97